createdAt,value
2018-06-15T00:00:09.473Z,16.32
2018-06-15T00:02:37.569Z,16.36
2018-06-15T00:05:05.802Z,16.38
2018-06-15T00:07:33.620Z,16.34
2018-06-15T00:10:01.638Z,16.35
2018-06-15T00:12:29.573Z,16.35
2018-06-15T00:14:57.507Z,16.38
2018-06-15T00:17:25.353Z,16.42
2018-06-15T00:19:53.259Z,16.33
2018-06-15T00:22:21.120Z,16.36
2018-06-15T00:24:49.037Z,16.30
2018-06-15T00:27:16.950Z,16.30
2018-06-15T00:29:44.818Z,16.21
2018-06-15T00:32:12.729Z,16.26
2018-06-15T00:34:40.608Z,16.23
2018-06-15T00:37:08.469Z,16.21
2018-06-15T00:39:36.365Z,16.19
2018-06-15T00:42:04.227Z,16.21
2018-06-15T00:44:32.133Z,16.21
2018-06-15T00:47:00.049Z,16.23
2018-06-15T00:49:27.890Z,16.20
2018-06-15T00:51:55.880Z,16.17
2018-06-15T00:54:23.784Z,16.19
2018-06-15T00:57:09.021Z,16.17
2018-06-15T00:59:36.890Z,16.14
2018-06-15T01:02:04.801Z,16.19
2018-06-15T01:04:32.739Z,16.14
2018-06-15T01:07:00.613Z,16.16
2018-06-15T01:09:28.444Z,16.10
2018-06-15T01:11:56.369Z,16.09
2018-06-15T01:14:24.324Z,16.02
2018-06-15T01:16:52.300Z,16.06
2018-06-15T01:19:20.269Z,16.11
2018-06-15T01:21:48.144Z,16.18
2018-06-15T01:24:16.100Z,16.14
2018-06-15T01:26:44.090Z,16.17
2018-06-15T01:29:11.945Z,16.10
2018-06-15T01:31:39.885Z,16.15
2018-06-15T01:34:07.780Z,16.17
2018-06-15T01:36:35.587Z,16.08
2018-06-15T01:39:06.200Z,16.04
2018-06-15T01:41:34.436Z,16.06
2018-06-15T01:44:02.249Z,15.97
2018-06-15T01:46:30.197Z,15.90
2018-06-15T01:48:58.111Z,15.87
2018-06-15T01:51:26.049Z,16.01
2018-06-15T01:53:53.844Z,15.92
2018-06-15T01:56:21.688Z,15.84
2018-06-15T01:58:49.620Z,15.86
2018-06-15T02:01:17.570Z,15.80
2018-06-15T02:03:45.395Z,15.82
2018-06-15T02:06:13.330Z,15.77
2018-06-15T02:08:41.492Z,15.75
2018-06-15T02:11:09.328Z,15.82
2018-06-15T02:13:37.227Z,15.77
2018-06-15T02:16:05.284Z,15.76
2018-06-15T02:18:33.397Z,15.78
2018-06-15T02:21:01.262Z,15.84
2018-06-15T02:23:29.581Z,15.85
2018-06-15T02:25:57.541Z,15.87
2018-06-15T02:28:25.383Z,15.78
2018-06-15T02:30:53.234Z,15.84
2018-06-15T02:33:21.262Z,15.81
2018-06-15T02:35:49.202Z,15.81
2018-06-15T02:38:17.289Z,15.83
2018-06-15T02:40:45.194Z,15.84
2018-06-15T02:43:13.005Z,15.77
2018-06-15T02:45:40.865Z,15.83
2018-06-15T02:48:08.769Z,15.87
2018-06-15T02:50:36.641Z,15.85
2018-06-15T02:53:04.725Z,15.89
2018-06-15T02:55:33.056Z,15.91
2018-06-15T02:58:01.092Z,15.95
2018-06-15T03:00:28.905Z,15.94
2018-06-15T03:02:56.894Z,15.95
2018-06-15T03:05:24.744Z,15.95
2018-06-15T03:07:52.603Z,15.91
2018-06-15T03:10:20.429Z,15.99
2018-06-15T03:12:48.346Z,16.00
2018-06-15T03:15:16.373Z,15.99
2018-06-15T03:17:44.248Z,16.01
2018-06-15T03:20:12.162Z,15.96
2018-06-15T03:22:40.001Z,16.00
2018-06-15T03:25:07.901Z,16.01
2018-06-15T03:27:35.820Z,15.98
2018-06-15T03:30:03.773Z,16.02
2018-06-15T03:32:31.616Z,16.03
2018-06-15T03:34:59.639Z,16.06
2018-06-15T03:37:27.509Z,16.02
2018-06-15T03:39:55.477Z,16.02
2018-06-15T03:42:23.393Z,16.07
2018-06-15T03:44:51.250Z,16.15
2018-06-15T03:47:19.172Z,16.26
2018-06-15T03:49:47.078Z,16.33
2018-06-15T03:52:15.041Z,16.34
2018-06-15T03:54:42.908Z,16.38
2018-06-15T03:57:10.831Z,16.40
2018-06-15T03:59:38.679Z,16.40
2018-06-15T04:02:06.609Z,16.42
2018-06-15T04:04:34.557Z,16.45
2018-06-15T04:07:02.449Z,16.48
2018-06-15T04:09:30.338Z,16.52
2018-06-15T04:11:58.244Z,16.54
2018-06-15T04:14:26.137Z,16.56
2018-06-15T04:16:55.073Z,16.63
2018-06-15T04:19:23.058Z,16.68
2018-06-15T04:21:50.889Z,16.73
2018-06-15T04:24:18.740Z,16.75
2018-06-15T04:26:46.715Z,16.80
2018-06-15T04:29:14.606Z,16.81
2018-06-15T04:31:42.449Z,16.90
2018-06-15T04:34:10.388Z,16.94
2018-06-15T04:36:38.320Z,16.97
2018-06-15T04:39:08.081Z,17.02
2018-06-15T04:41:36.052Z,17.08
2018-06-15T04:44:03.986Z,17.12
2018-06-15T04:46:31.869Z,17.15
2018-06-15T04:48:59.682Z,17.13
2018-06-15T04:51:27.818Z,17.16
2018-06-15T04:53:55.668Z,17.22
2018-06-15T04:56:23.581Z,17.25
2018-06-15T04:58:51.304Z,17.30
2018-06-15T05:01:19.289Z,17.35
2018-06-15T05:03:47.165Z,17.38
2018-06-15T05:06:15.094Z,17.39
2018-06-15T05:08:43.056Z,17.50
2018-06-15T05:11:10.869Z,17.54
2018-06-15T05:13:38.704Z,17.56
2018-06-15T05:16:06.604Z,17.64
2018-06-15T05:18:34.505Z,17.72
2018-06-15T05:21:02.604Z,17.72
2018-06-15T05:23:30.693Z,17.84
2018-06-15T05:25:58.643Z,17.95
2018-06-15T05:28:26.495Z,18.01
2018-06-15T05:30:54.365Z,18.07
2018-06-15T05:33:22.824Z,18.12
2018-06-15T05:35:50.717Z,18.21
2018-06-15T05:38:18.591Z,18.32
2018-06-15T05:40:46.536Z,18.42
2018-06-15T05:43:14.770Z,18.52
2018-06-15T05:45:43.228Z,18.57
2018-06-15T05:48:11.421Z,18.65
2018-06-15T05:50:39.320Z,18.67
2018-06-15T05:53:08.672Z,18.79
2018-06-15T05:55:36.778Z,18.85
2018-06-15T05:58:05.375Z,18.97
2018-06-15T06:00:34.425Z,19.04
2018-06-15T06:03:02.940Z,19.12
2018-06-15T06:05:30.888Z,19.24
2018-06-15T06:07:58.897Z,19.28
2018-06-15T06:10:27.012Z,19.34
2018-06-15T06:12:54.945Z,19.44
2018-06-15T06:15:24.755Z,19.55
2018-06-15T06:17:52.708Z,19.62
2018-06-15T06:20:20.588Z,19.73
2018-06-15T06:22:48.464Z,19.80
2018-06-15T06:25:16.369Z,19.87
2018-06-15T06:27:44.312Z,19.94
2018-06-15T06:30:12.178Z,19.96
2018-06-15T06:32:40.206Z,20.03
2018-06-15T06:35:08.038Z,20.10
2018-06-15T06:37:35.860Z,20.14
2018-06-15T06:40:03.894Z,20.21
2018-06-15T06:42:31.790Z,20.30
2018-06-15T06:44:59.689Z,20.39
2018-06-15T06:47:27.552Z,20.51
2018-06-15T06:49:55.401Z,20.59
2018-06-15T06:52:23.296Z,20.74
2018-06-15T06:54:51.821Z,20.85
2018-06-15T06:57:19.764Z,20.96
2018-06-15T06:59:47.665Z,21.05
2018-06-15T07:02:15.541Z,21.22
2018-06-15T07:04:43.501Z,21.27
2018-06-15T07:07:11.341Z,21.37
2018-06-15T07:09:39.341Z,21.57
2018-06-15T07:12:07.341Z,21.74
2018-06-15T07:14:35.151Z,21.84
2018-06-15T07:17:03.033Z,22.11
2018-06-15T07:19:30.893Z,22.37
2018-06-15T07:21:58.763Z,22.61
2018-06-15T07:24:26.725Z,22.80
2018-06-15T07:26:54.607Z,22.76
2018-06-15T07:29:22.563Z,22.99
2018-06-15T07:31:50.409Z,23.08
2018-06-15T07:34:18.323Z,23.23
2018-06-15T07:36:46.181Z,23.32
2018-06-15T07:39:14.042Z,23.35
2018-06-15T07:41:41.957Z,23.37
2018-06-15T07:44:09.885Z,23.49
2018-06-15T07:46:37.821Z,23.55
2018-06-15T07:49:05.685Z,23.59
2018-06-15T07:51:33.524Z,23.69
2018-06-15T07:54:01.416Z,23.61
2018-06-15T07:56:29.251Z,23.64
2018-06-15T07:58:57.101Z,23.63
2018-06-15T08:01:25.045Z,23.66
2018-06-15T08:04:01.949Z,23.56
2018-06-15T08:06:30.221Z,23.46
2018-06-15T08:08:58.838Z,23.39
2018-06-15T08:11:26.677Z,23.38
2018-06-15T08:13:54.577Z,23.37
2018-06-15T08:16:22.464Z,23.33
2018-06-15T08:18:50.337Z,23.18
2018-06-15T08:21:18.153Z,23.35
2018-06-15T08:23:46.174Z,23.36
2018-06-15T08:26:14.133Z,23.52
2018-06-15T08:28:42.093Z,23.66
2018-06-15T08:31:09.970Z,23.84
2018-06-15T08:33:37.818Z,23.96
2018-06-15T08:36:05.856Z,24.08
2018-06-15T08:38:33.700Z,24.00
2018-06-15T08:41:01.656Z,24.38
2018-06-15T08:43:29.513Z,24.66
2018-06-15T08:45:57.369Z,24.66
2018-06-15T08:48:25.298Z,24.98
2018-06-15T08:50:53.130Z,25.16
2018-06-15T08:53:21.070Z,25.37
2018-06-15T08:55:48.909Z,25.56
2018-06-15T08:58:16.742Z,25.47
2018-06-15T09:00:44.556Z,25.81
2018-06-15T09:03:12.464Z,25.89
2018-06-15T09:05:40.340Z,26.18
2018-06-15T09:08:08.164Z,26.37
2018-06-15T09:10:36.064Z,26.60
2018-06-15T09:13:03.998Z,26.76
2018-06-15T09:15:31.861Z,27.01
2018-06-15T09:17:59.832Z,27.27
2018-06-15T09:20:27.707Z,27.43
2018-06-15T09:22:55.481Z,27.59
2018-06-15T09:25:23.271Z,27.74
2018-06-15T09:27:51.097Z,27.97
2018-06-15T09:30:21.023Z,27.81
2018-06-15T09:32:48.826Z,28.42
2018-06-15T09:35:16.655Z,28.44
2018-06-15T09:37:44.532Z,28.74
2018-06-15T09:40:12.382Z,29.03
2018-06-15T09:42:40.300Z,29.26
2018-06-15T09:45:08.228Z,29.50
2018-06-15T09:47:36.057Z,29.33
2018-06-15T09:50:04.135Z,29.87
2018-06-15T09:52:31.965Z,29.72
2018-06-15T09:54:59.773Z,29.72
2018-06-15T09:57:27.717Z,30.16
2018-06-15T09:59:55.648Z,30.62
2018-06-15T10:02:23.561Z,31.11
2018-06-15T10:04:51.405Z,31.61
2018-06-15T10:07:19.357Z,32.10
2018-06-15T10:09:47.137Z,32.41
2018-06-15T10:12:14.956Z,32.39
2018-06-15T10:14:42.785Z,32.22
2018-06-15T10:17:10.673Z,32.24
2018-06-15T10:19:38.427Z,31.99
2018-06-15T10:22:06.433Z,31.68
2018-06-15T10:24:34.314Z,31.07
2018-06-15T10:27:02.133Z,30.98
2018-06-15T10:29:30.029Z,30.93
2018-06-15T10:31:57.952Z,30.61
2018-06-15T10:34:25.837Z,30.44
2018-06-15T10:36:53.656Z,30.27
2018-06-15T10:39:21.631Z,30.11
2018-06-15T10:41:49.590Z,30.01
2018-06-15T10:44:17.475Z,30.05
2018-06-15T10:46:45.352Z,29.98
2018-06-15T10:49:13.180Z,29.97
2018-06-15T10:51:41.109Z,30.00
2018-06-15T10:54:09.024Z,30.09
2018-06-15T10:56:36.841Z,29.89
2018-06-15T10:59:04.833Z,30.07
2018-06-15T11:01:32.660Z,30.17
2018-06-15T11:04:00.566Z,30.30
2018-06-15T11:06:28.389Z,30.17
2018-06-15T11:08:56.177Z,29.99
2018-06-15T11:11:24.099Z,30.06
2018-06-15T11:13:51.925Z,30.06
2018-06-15T11:16:19.820Z,30.05
2018-06-15T11:18:48.004Z,29.48
2018-06-15T11:21:15.811Z,29.68
2018-06-15T11:23:43.635Z,29.78
2018-06-15T11:26:11.607Z,29.84
2018-06-15T11:28:39.481Z,29.88
2018-06-15T11:31:07.369Z,30.01
2018-06-15T11:33:35.356Z,30.17
2018-06-15T11:36:03.253Z,30.38
2018-06-15T11:38:31.208Z,30.22
2018-06-15T11:40:59.096Z,30.48
2018-06-15T11:43:26.907Z,30.63
2018-06-15T11:45:54.763Z,30.84
2018-06-15T11:48:22.615Z,30.73
2018-06-15T11:50:50.455Z,30.83
2018-06-15T11:53:18.344Z,30.83
2018-06-15T11:55:46.250Z,30.96
2018-06-15T11:58:14.082Z,31.01
2018-06-15T12:00:41.956Z,30.76
2018-06-15T12:03:09.802Z,31.13
2018-06-15T12:05:37.673Z,31.40
2018-06-15T12:08:05.836Z,31.50
2018-06-15T12:10:33.773Z,31.48
2018-06-15T12:13:01.665Z,31.56
2018-06-15T12:15:29.597Z,31.76
2018-06-15T12:18:01.443Z,31.83
2018-06-15T12:20:29.370Z,31.91
2018-06-15T12:22:57.301Z,31.70
2018-06-15T12:25:25.148Z,31.75
2018-06-15T12:27:52.982Z,31.82
2018-06-15T12:30:20.807Z,31.66
2018-06-15T12:32:48.684Z,31.36
2018-06-15T12:35:16.522Z,30.90
2018-06-15T12:37:44.377Z,30.59
2018-06-15T12:40:12.293Z,30.41
2018-06-15T12:42:40.146Z,30.33
2018-06-15T12:45:07.973Z,30.24
2018-06-15T12:47:35.914Z,30.12
2018-06-15T12:50:03.886Z,30.02
2018-06-15T12:52:31.761Z,29.85
2018-06-15T12:54:59.629Z,29.88
2018-06-15T12:57:27.524Z,29.82
2018-06-15T12:59:58.034Z,29.79
2018-06-15T13:02:25.972Z,29.83
2018-06-15T13:04:53.858Z,29.88
2018-06-15T13:07:21.680Z,29.81
2018-06-15T13:09:49.493Z,29.83
2018-06-15T13:12:17.340Z,29.89
2018-06-15T13:14:45.362Z,30.06
2018-06-15T13:17:13.249Z,30.24
2018-06-15T13:19:41.085Z,30.55
2018-06-15T13:22:08.932Z,30.81
2018-06-15T13:24:36.773Z,30.54
2018-06-15T13:27:04.647Z,30.79
2018-06-15T13:29:32.531Z,30.96
2018-06-15T13:32:00.357Z,30.98
2018-06-15T13:34:28.190Z,31.07
2018-06-15T13:36:56.338Z,30.98
2018-06-15T13:39:24.201Z,31.13
2018-06-15T13:41:52.064Z,30.88
2018-06-15T13:44:19.913Z,30.71
2018-06-15T13:46:47.729Z,30.98
2018-06-15T13:49:15.553Z,31.02
2018-06-15T13:51:43.430Z,30.94
2018-06-15T13:54:11.273Z,30.75
2018-06-15T13:56:39.141Z,30.76
2018-06-15T13:59:13.507Z,30.84
2018-06-15T14:01:41.641Z,30.85
2018-06-15T14:04:09.638Z,31.06
2018-06-15T14:06:37.585Z,31.15
2018-06-15T14:09:09.974Z,31.14
2018-06-15T14:11:38.542Z,31.12
2018-06-15T14:14:06.401Z,31.18
2018-06-15T14:16:34.417Z,31.14
2018-06-15T14:19:02.449Z,31.25
2018-06-15T14:21:30.372Z,31.16
2018-06-15T14:23:58.266Z,30.97
2018-06-15T14:26:26.121Z,31.15
2018-06-15T14:28:54.062Z,31.17
2018-06-15T14:31:21.905Z,30.70
2018-06-15T14:33:49.730Z,30.81
2018-06-15T14:36:18.576Z,30.32
2018-06-15T14:38:48.465Z,30.15
2018-06-15T14:41:19.703Z,30.03
2018-06-15T14:43:47.789Z,29.77
2018-06-15T14:46:15.668Z,29.46
2018-06-15T14:48:43.497Z,29.29
2018-06-15T14:51:11.297Z,29.09
2018-06-15T14:53:39.212Z,28.84
2018-06-15T14:56:07.085Z,28.80
2018-06-15T14:58:34.975Z,28.60
2018-06-15T15:01:02.867Z,28.46
2018-06-15T15:03:30.750Z,28.46
2018-06-15T15:06:02.783Z,28.38
2018-06-15T15:08:30.673Z,28.18
2018-06-15T15:10:58.646Z,27.82
2018-06-15T15:13:26.489Z,27.72
2018-06-15T15:15:54.405Z,27.51
2018-06-15T15:18:22.337Z,27.34
2018-06-15T15:20:50.910Z,27.34
2018-06-15T15:23:20.108Z,27.14
2018-06-15T15:25:49.435Z,26.90
2018-06-15T15:28:18.954Z,26.78
2018-06-15T15:30:47.390Z,26.56
2018-06-15T15:33:16.302Z,26.57
2018-06-15T15:35:46.701Z,26.58
2018-06-15T15:38:14.649Z,26.48
2018-06-15T15:40:48.668Z,26.40
2018-06-15T15:43:17.198Z,26.30
2018-06-15T15:45:50.436Z,26.17
2018-06-15T15:48:23.583Z,26.09
2018-06-15T15:50:51.699Z,25.97
2018-06-15T15:53:19.791Z,25.91
2018-06-15T15:55:47.638Z,25.78
2018-06-15T15:58:15.565Z,25.76
2018-06-15T16:00:46.691Z,25.66
2018-06-15T16:03:15.171Z,25.57
2018-06-15T16:05:44.442Z,25.57
2018-06-15T16:08:12.377Z,25.55
2018-06-15T16:10:40.522Z,25.48
2018-06-15T16:13:08.410Z,25.47
2018-06-15T16:15:36.316Z,25.36
2018-06-15T16:18:04.421Z,25.25
2018-06-15T16:20:32.552Z,25.30
2018-06-15T16:23:00.437Z,25.26
2018-06-15T16:25:28.293Z,25.21
2018-06-15T16:27:56.160Z,25.23
2018-06-15T16:30:28.211Z,25.10
2018-06-15T16:32:56.108Z,25.15
2018-06-15T16:35:23.997Z,25.10
2018-06-15T16:37:51.896Z,25.10
2018-06-15T16:40:19.989Z,25.03
2018-06-15T16:42:47.805Z,24.95
2018-06-15T16:45:15.689Z,24.97
2018-06-15T16:47:43.645Z,24.86
2018-06-15T16:50:11.540Z,24.89
2018-06-15T16:52:39.404Z,24.86
2018-06-15T16:55:07.208Z,24.86
2018-06-15T16:57:35.093Z,24.82
2018-06-15T17:00:03.051Z,24.70
2018-06-15T17:02:30.947Z,24.69
2018-06-15T17:04:58.859Z,24.69
2018-06-15T17:07:26.697Z,24.58
2018-06-15T17:09:54.830Z,24.58
2018-06-15T17:12:24.469Z,24.54
2018-06-15T17:14:52.529Z,24.51
2018-06-15T17:17:20.471Z,24.39
2018-06-15T17:19:48.466Z,24.36
2018-06-15T17:22:16.354Z,24.40
2018-06-15T17:24:44.292Z,24.26
2018-06-15T17:27:12.187Z,24.28
2018-06-15T17:29:39.977Z,24.31
2018-06-15T17:32:08.584Z,24.25
2018-06-15T17:34:36.466Z,24.18
2018-06-15T17:37:04.547Z,24.18
2018-06-15T17:39:32.478Z,24.17
2018-06-15T17:42:00.412Z,24.14
2018-06-15T17:44:28.368Z,24.08
2018-06-15T17:46:56.277Z,24.07
2018-06-15T17:49:24.165Z,24.04
2018-06-15T17:51:51.979Z,24.04
2018-06-15T17:54:19.997Z,24.00
2018-06-15T17:56:47.908Z,23.99
2018-06-15T17:59:15.809Z,23.94
2018-06-15T18:01:43.636Z,23.92
2018-06-15T18:04:11.588Z,23.92
2018-06-15T18:06:39.545Z,23.84
2018-06-15T18:09:09.341Z,23.83
2018-06-15T18:11:37.294Z,23.81
2018-06-15T18:14:05.252Z,23.74
2018-06-15T18:16:33.451Z,23.78
2018-06-15T18:19:01.297Z,23.76
2018-06-15T18:21:29.113Z,23.73
2018-06-15T18:23:57.089Z,23.68
2018-06-15T18:26:25.013Z,23.65
2018-06-15T18:28:52.885Z,23.65
2018-06-15T18:31:20.840Z,23.60
2018-06-15T18:33:49.758Z,23.55
2018-06-15T18:36:17.694Z,23.53
2018-06-15T18:38:45.585Z,23.46
2018-06-15T18:41:13.624Z,23.43
2018-06-15T18:43:41.581Z,23.38
2018-06-15T18:46:09.523Z,23.38
2018-06-15T18:48:37.417Z,23.33
2018-06-15T18:51:05.325Z,23.31
2018-06-15T18:53:33.209Z,23.27
2018-06-15T18:56:01.182Z,23.21
2018-06-15T18:58:29.097Z,23.18
2018-06-15T19:00:57.052Z,23.10
2018-06-15T19:03:24.960Z,23.01
2018-06-15T19:05:52.780Z,22.98
2018-06-15T19:08:20.670Z,22.95
2018-06-15T19:10:48.501Z,22.88
2018-06-15T19:13:16.413Z,22.87
2018-06-15T19:15:44.322Z,22.81
2018-06-15T19:18:15.663Z,22.76
2018-06-15T19:20:43.646Z,22.68
2018-06-15T19:23:11.538Z,22.57
2018-06-15T19:25:39.417Z,22.56
2018-06-15T19:28:07.381Z,22.50
2018-06-15T19:30:35.234Z,22.43
2018-06-15T19:33:03.184Z,22.39
2018-06-15T19:35:31.081Z,22.36
2018-06-15T19:37:58.949Z,22.28
2018-06-15T19:40:26.786Z,22.25
2018-06-15T19:42:54.616Z,22.21
2018-06-15T19:45:22.438Z,22.15
2018-06-15T19:47:50.379Z,22.12
2018-06-15T19:50:18.233Z,22.08
2018-06-15T19:52:46.112Z,21.99
2018-06-15T19:55:13.937Z,21.95
2018-06-15T19:57:41.877Z,21.90
2018-06-15T20:00:09.830Z,21.86
2018-06-15T20:02:37.693Z,21.77
2018-06-15T20:05:05.608Z,21.74
2018-06-15T20:07:33.462Z,21.72
2018-06-15T20:10:01.289Z,21.65
2018-06-15T20:12:29.160Z,21.61
2018-06-15T20:14:57.053Z,21.53
2018-06-15T20:17:27.585Z,21.52
2018-06-15T20:19:55.474Z,21.44
2018-06-15T20:22:25.258Z,21.38
2018-06-15T20:24:53.204Z,21.33
2018-06-15T20:27:21.688Z,21.30
2018-06-15T20:29:50.800Z,21.24
2018-06-15T20:32:23.427Z,21.21
2018-06-15T20:34:51.905Z,21.12
2018-06-15T20:37:22.866Z,21.13
2018-06-15T20:39:50.737Z,21.09
2018-06-15T20:42:25.839Z,21.10
2018-06-15T20:44:54.372Z,21.05
2018-06-15T20:47:23.454Z,20.95
2018-06-15T20:49:52.440Z,20.90
2018-06-15T20:52:20.386Z,20.92
2018-06-15T20:54:50.305Z,20.85
2018-06-15T20:57:18.866Z,20.78
2018-06-15T20:59:49.638Z,20.72
2018-06-15T21:02:20.210Z,20.70
2018-06-15T21:04:54.284Z,20.58
2018-06-15T21:07:22.267Z,20.55
2018-06-15T21:09:50.388Z,20.52
2018-06-15T21:12:18.255Z,20.49
2018-06-15T21:14:52.953Z,20.42
2018-06-15T21:17:21.446Z,20.45
2018-06-15T21:19:49.493Z,20.41
2018-06-15T21:22:17.464Z,20.31
2018-06-15T21:24:47.125Z,20.16
2018-06-15T21:27:17.282Z,20.19
2018-06-15T21:29:48.565Z,20.03
2018-06-15T21:32:18.734Z,20.11
2018-06-15T21:34:46.877Z,20.01
2018-06-15T21:37:23.822Z,19.76
2018-06-15T21:39:52.147Z,19.84
2018-06-15T21:42:20.053Z,19.61
2018-06-15T21:44:52.461Z,19.58
2018-06-15T21:47:24.159Z,19.58
2018-06-15T21:49:55.040Z,19.32
2018-06-15T21:52:22.928Z,19.29
2018-06-15T21:54:56.231Z,19.21
2018-06-15T21:57:29.831Z,19.09
2018-06-15T21:59:59.567Z,19.15
2018-06-15T22:02:27.505Z,19.13
2018-06-15T22:04:55.425Z,19.00
2018-06-15T22:07:24.166Z,19.08
2018-06-15T22:09:52.041Z,18.99
2018-06-15T22:12:22.158Z,18.94
2018-06-15T22:14:50.105Z,18.84
2018-06-15T22:17:17.996Z,18.95
2018-06-15T22:19:47.081Z,18.89
2018-06-15T22:22:14.952Z,18.79
2018-06-15T22:24:42.786Z,18.85
2018-06-15T22:27:12.777Z,18.92
2018-06-15T22:29:40.851Z,18.90
2018-06-15T22:32:08.829Z,18.87
2018-06-15T22:34:36.653Z,18.82
2018-06-15T22:37:04.517Z,18.73
2018-06-15T22:39:32.470Z,18.93
2018-06-15T22:42:00.335Z,18.93
2018-06-15T22:44:28.217Z,18.78
2018-06-15T22:46:56.911Z,18.68
2018-06-15T22:49:29.726Z,18.60
2018-06-15T22:52:03.122Z,18.59
2018-06-15T22:54:31.009Z,18.63
2018-06-15T22:56:58.904Z,18.53
2018-06-15T22:59:26.853Z,18.43
2018-06-15T23:01:54.790Z,18.40
2018-06-15T23:04:22.637Z,18.42
2018-06-15T23:06:50.609Z,18.41
2018-06-15T23:09:18.544Z,18.30
2018-06-15T23:11:46.377Z,18.34
2018-06-15T23:14:14.330Z,18.36
2018-06-15T23:16:42.293Z,18.21
2018-06-15T23:19:10.199Z,18.27
2018-06-15T23:21:38.113Z,18.18
2018-06-15T23:24:06.087Z,18.18
2018-06-15T23:26:33.928Z,18.05
2018-06-15T23:29:01.793Z,18.17
2018-06-15T23:31:29.613Z,18.14
2018-06-15T23:33:57.539Z,18.10
2018-06-15T23:36:25.353Z,18.17
2018-06-15T23:38:53.238Z,18.14
2018-06-15T23:41:21.110Z,18.03
2018-06-15T23:43:49.048Z,17.99
2018-06-15T23:46:16.959Z,18.01
2018-06-15T23:48:44.785Z,17.83
2018-06-15T23:51:12.675Z,17.83
2018-06-15T23:53:40.572Z,17.84
2018-06-15T23:56:08.477Z,17.71
2018-06-15T23:58:36.395Z,17.61
